createdAt,value
2022-08-19T00:01:43.704Z,119
2022-08-19T00:05:04.869Z,114
2022-08-19T00:08:31.413Z,121
2022-08-19T00:11:36.720Z,122
2022-08-19T00:14:42.011Z,121
2022-08-19T00:17:47.302Z,118
2022-08-19T00:20:52.614Z,118
2022-08-19T00:24:35.035Z,119
2022-08-19T00:27:40.302Z,113
2022-08-19T00:30:45.611Z,124
2022-08-19T00:33:50.919Z,113
2022-08-19T00:38:43.304Z,119
2022-08-19T00:41:48.663Z,116
2022-08-19T00:45:30.978Z,127
2022-08-19T00:48:36.327Z,130
2022-08-19T00:51:41.603Z,122
2022-08-19T00:54:49.686Z,123
2022-08-19T00:57:52.230Z,123
2022-08-19T01:01:34.623Z,121
2022-08-19T01:04:39.939Z,128
2022-08-19T01:07:45.242Z,127
2022-08-19T01:10:50.552Z,126
2022-08-19T01:14:32.933Z,132
2022-08-19T01:17:38.229Z,129
2022-08-19T01:20:43.525Z,121
2022-08-19T01:24:04.664Z,131
2022-08-19T01:27:32.969Z,128
2022-08-19T01:30:36.581Z,132
2022-08-19T01:33:41.868Z,125
2022-08-19T01:36:38.942Z,127
2022-08-19T01:39:44.376Z,117
2022-08-19T01:42:49.660Z,127
2022-08-19T01:46:31.941Z,133
2022-08-19T01:49:37.257Z,128
2022-08-19T01:52:42.604Z,123
2022-08-19T01:55:47.892Z,133
2022-08-19T01:59:30.225Z,130
2022-08-19T02:02:35.586Z,130
2022-08-19T02:05:40.894Z,136
2022-08-19T02:08:46.190Z,123
2022-08-19T02:11:51.521Z,132
2022-08-19T02:15:33.885Z,131
2022-08-19T02:18:39.186Z,126
2022-08-19T02:21:44.525Z,133
2022-08-19T02:24:49.814Z,131
2022-08-19T02:29:04.188Z,133
2022-08-19T02:31:37.495Z,143
2022-08-19T02:34:42.786Z,138
2022-08-19T02:37:39.923Z,131
2022-08-19T02:40:45.214Z,134
2022-08-19T02:44:14.247Z,129
2022-08-19T02:47:32.908Z,133
2022-08-19T02:50:38.212Z,133
2022-08-19T02:53:43.524Z,118
2022-08-19T02:56:48.828Z,128
2022-08-19T03:00:31.189Z,126
2022-08-19T03:03:36.526Z,133
2022-08-19T03:06:41.819Z,133
2022-08-19T03:09:47.119Z,132
2022-08-19T03:12:52.552Z,132
2022-08-19T03:16:34.824Z,131
2022-08-19T03:19:40.144Z,129
2022-08-19T03:22:45.436Z,129
2022-08-19T03:25:58.075Z,125
2022-08-19T03:29:33.108Z,125
2022-08-19T03:32:45.274Z,125
2022-08-19T03:35:43.738Z,127
2022-08-19T03:38:40.906Z,125
2022-08-19T03:41:48.158Z,124
2022-08-19T03:44:51.476Z,120
2022-08-19T03:48:33.885Z,127
2022-08-19T03:51:39.171Z,124
2022-08-19T03:55:16.667Z,119
2022-08-19T03:57:49.780Z,118
2022-08-19T04:01:35.261Z,119
2022-08-19T04:04:37.481Z,123
2022-08-19T04:07:42.806Z,125
2022-08-19T04:10:48.156Z,118
2022-08-19T04:14:30.468Z,127
2022-08-19T04:17:35.765Z,118
2022-08-19T04:20:41.063Z,120
2022-08-19T04:23:46.410Z,124
2022-08-19T04:26:51.722Z,128
2022-08-19T04:30:34.067Z,114
2022-08-19T04:33:39.411Z,126
2022-08-19T04:36:44.709Z,114
2022-08-19T04:39:41.940Z,122
2022-08-19T04:42:47.194Z,124
2022-08-19T04:45:52.780Z,115
2022-08-19T04:49:34.820Z,116
2022-08-19T04:52:40.124Z,111
2022-08-19T04:55:45.430Z,105
2022-08-19T04:58:50.733Z,108
2022-08-19T05:02:33.129Z,109
2022-08-19T05:05:44.540Z,108
2022-08-19T05:08:43.735Z,102
2022-08-19T05:11:49.368Z,114
2022-08-19T05:15:31.399Z,111
2022-08-19T05:18:36.712Z,117
2022-08-19T05:21:42.056Z,106
2022-08-19T05:25:02.702Z,103
2022-08-19T05:27:52.659Z,112
2022-08-19T05:31:35.028Z,101
2022-08-19T05:34:40.326Z,101
2022-08-19T05:39:28.633Z,106
2022-08-19T05:42:33.980Z,102
2022-08-19T05:45:39.275Z,102
2022-08-19T05:48:44.546Z,102
2022-08-19T05:51:49.888Z,96
2022-08-19T05:55:32.272Z,90
2022-08-19T05:58:37.609Z,96
2022-08-19T06:01:42.881Z,93
2022-08-19T06:04:48.186Z,88
2022-08-19T06:07:53.646Z,81
2022-08-19T06:11:35.855Z,91
2022-08-19T06:14:41.734Z,93
2022-08-19T06:17:46.511Z,77
2022-08-19T06:20:55.720Z,81
2022-08-19T06:24:34.190Z,78
2022-08-19T06:27:45.026Z,80
2022-08-19T06:30:44.814Z,85
2022-08-19T06:33:50.199Z,81
2022-08-19T06:37:32.460Z,81
2022-08-19T06:40:29.601Z,85
2022-08-19T06:43:34.900Z,77
2022-08-19T06:46:40.219Z,81
2022-08-19T06:49:45.542Z,76
2022-08-19T06:52:50.909Z,81
2022-08-19T06:56:33.206Z,84
2022-08-19T06:59:38.529Z,84
2022-08-19T07:02:46.254Z,76
2022-08-19T07:05:49.165Z,86
2022-08-19T07:09:31.544Z,79
2022-08-19T07:12:38.108Z,78
2022-08-19T07:15:42.129Z,79
2022-08-19T07:18:47.454Z,79
2022-08-19T07:21:52.791Z,75
2022-08-19T07:25:35.109Z,75
2022-08-19T07:28:40.434Z,75
2022-08-19T07:31:45.778Z,80
2022-08-19T07:34:51.046Z,75
2022-08-19T07:38:33.429Z,71
2022-08-19T07:41:30.569Z,71
2022-08-19T07:44:35.924Z,74
2022-08-19T07:47:48.662Z,77
2022-08-19T07:50:46.506Z,70
2022-08-19T07:53:51.769Z,68
2022-08-19T07:57:34.169Z,78
2022-08-19T08:00:39.513Z,74
2022-08-19T08:03:44.763Z,68
2022-08-19T08:06:50.142Z,64
2022-08-19T08:10:32.431Z,62
2022-08-19T08:13:39.040Z,66
2022-08-19T08:16:46.894Z,68
2022-08-19T08:19:48.401Z,65
2022-08-19T08:22:53.895Z,68
2022-08-19T08:26:36.147Z,55
2022-08-19T08:29:41.394Z,62
2022-08-19T08:32:46.703Z,58
2022-08-19T08:35:52.053Z,54
2022-08-19T08:39:34.382Z,49
2022-08-19T08:42:31.479Z,56
2022-08-19T08:45:40.875Z,52
2022-08-19T08:48:42.113Z,49
2022-08-19T08:51:47.876Z,47
2022-08-19T08:54:55.104Z,49
2022-08-19T08:58:35.117Z,43
2022-08-19T09:01:40.495Z,45
2022-08-19T09:04:45.745Z,46
2022-08-19T09:07:51.066Z,49
2022-08-19T09:11:41.943Z,46
2022-08-19T09:14:50.114Z,46
2022-08-19T09:17:44.056Z,47
2022-08-19T09:20:49.333Z,61
2022-08-19T09:24:31.802Z,61
2022-08-19T09:27:42.633Z,53
2022-08-19T09:30:42.338Z,65
2022-08-19T09:33:47.653Z,56
2022-08-19T09:36:52.965Z,51
2022-08-19T09:41:41.261Z,44
2022-08-19T09:44:46.574Z,47
2022-08-19T09:47:54.001Z,51
2022-08-19T09:51:34.978Z,40
2022-08-19T09:54:39.561Z,46
2022-08-19T09:57:44.890Z,41
2022-08-19T10:00:50.987Z,39
2022-08-19T10:04:32.554Z,43
2022-08-19T10:07:37.869Z,42
2022-08-19T10:10:43.303Z,37
2022-08-19T10:13:48.529Z,44
2022-08-19T10:16:53.805Z,42
2022-08-19T10:20:36.169Z,48
2022-08-19T10:23:41.525Z,34
2022-08-19T10:26:46.799Z,35
2022-08-19T10:29:52.153Z,36
2022-08-19T10:33:38.997Z,35
2022-08-19T10:36:39.787Z,32
2022-08-19T10:40:00.886Z,33
2022-08-19T10:42:42.231Z,35
2022-08-19T10:45:52.228Z,42
2022-08-19T10:48:52.860Z,42
2022-08-19T10:52:35.192Z,47
2022-08-19T10:55:40.519Z,50
2022-08-19T10:58:45.830Z,55
2022-08-19T11:01:51.148Z,53
2022-08-19T11:05:36.603Z,54
2022-08-19T11:08:38.829Z,52
2022-08-19T11:11:44.161Z,59
2022-08-19T11:14:49.447Z,51
2022-08-19T11:18:31.847Z,51
2022-08-19T11:21:37.130Z,52
2022-08-19T11:24:42.428Z,47
2022-08-19T11:27:47.778Z,41
2022-08-19T11:30:53.055Z,40
2022-08-19T11:34:35.461Z,46
2022-08-19T11:37:40.730Z,42
2022-08-19T11:40:37.869Z,42
2022-08-19T11:43:43.207Z,41
2022-08-19T11:46:48.473Z,46
2022-08-19T11:50:30.856Z,36
2022-08-19T11:53:36.178Z,34
2022-08-19T11:56:41.484Z,28
2022-08-19T11:59:46.800Z,34
2022-08-19T12:02:52.085Z,28
2022-08-19T12:06:34.452Z,31
2022-08-19T12:09:42.181Z,25
2022-08-19T12:12:45.058Z,41
2022-08-19T12:15:50.381Z,26
2022-08-19T12:19:32.750Z,23
2022-08-19T12:22:38.063Z,21
2022-08-19T12:25:43.396Z,22
2022-08-19T12:28:48.690Z,17
2022-08-19T12:32:31.076Z,19
2022-08-19T12:35:36.344Z,20
2022-08-19T12:38:41.717Z,18
2022-08-19T12:41:43.452Z,22
2022-08-19T12:44:44.140Z,22
2022-08-19T12:47:49.558Z,21
2022-08-19T12:51:31.804Z,19
2022-08-19T12:54:37.118Z,22
2022-08-19T12:58:48.762Z,19
2022-08-19T13:00:47.833Z,16
2022-08-19T13:03:53.105Z,28
2022-08-19T13:07:35.496Z,17
2022-08-19T13:10:40.733Z,15
2022-08-19T13:13:46.032Z,20
2022-08-19T13:16:51.360Z,21
2022-08-19T13:20:33.717Z,25
2022-08-19T13:23:39.024Z,18
2022-08-19T13:26:44.359Z,21
2022-08-19T13:29:49.663Z,20
2022-08-19T13:33:32.016Z,22
2022-08-19T13:36:37.337Z,21
2022-08-19T13:39:42.644Z,21
2022-08-19T13:42:47.973Z,18
2022-08-19T13:45:53.255Z,24
2022-08-19T13:49:35.662Z,16
2022-08-19T13:52:03.885Z,21
2022-08-19T13:54:23.954Z,22
2022-08-19T13:56:52.214Z,19
2022-08-19T14:00:34.644Z,23
2022-08-19T14:03:39.917Z,22
2022-08-19T14:06:45.177Z,21
2022-08-19T14:09:50.502Z,23
2022-08-19T14:13:32.858Z,19
2022-08-19T14:16:38.189Z,22
2022-08-19T14:19:43.515Z,22
2022-08-19T14:22:48.819Z,22
2022-08-19T14:25:54.128Z,20
2022-08-19T14:29:36.493Z,24
2022-08-19T14:34:32.994Z,21
2022-08-19T14:37:45.253Z,18
2022-08-19T14:40:43.641Z,25
2022-08-19T14:43:48.930Z,25
2022-08-19T14:46:54.592Z,23
2022-08-19T14:50:36.647Z,19
2022-08-19T14:53:41.927Z,23
2022-08-19T14:56:47.241Z,22
2022-08-19T14:59:52.544Z,26
2022-08-19T15:02:57.881Z,22
2022-08-19T15:07:04.509Z,24
2022-08-19T15:09:37.351Z,23
2022-08-19T15:12:42.657Z,24
2022-08-19T15:15:47.964Z,23
2022-08-19T15:18:53.254Z,24
2022-08-19T15:22:35.671Z,28
2022-08-19T15:25:40.971Z,24
2022-08-19T15:28:46.273Z,25
2022-08-19T15:31:51.579Z,21
2022-08-19T15:35:33.963Z,21
2022-08-19T15:38:42.124Z,23
2022-08-19T15:41:45.261Z,29
2022-08-19T15:44:49.869Z,25
2022-08-19T15:48:32.231Z,24
2022-08-19T15:51:37.564Z,24
2022-08-19T15:54:42.882Z,24
2022-08-19T15:57:48.244Z,27
2022-08-19T16:00:53.513Z,24
2022-08-19T16:04:27.692Z,27
2022-08-19T16:07:33.010Z,26
2022-08-19T16:10:38.294Z,25
2022-08-19T16:13:43.603Z,23
2022-08-19T16:16:48.911Z,25
2022-08-19T16:20:31.296Z,27
2022-08-19T16:23:36.589Z,27
2022-08-19T16:26:41.945Z,28
2022-08-19T16:29:47.240Z,27
2022-08-19T16:32:52.571Z,28
2022-08-19T16:36:34.880Z,25
2022-08-19T16:39:40.245Z,28
2022-08-19T16:42:45.549Z,25
2022-08-19T16:45:50.839Z,28
2022-08-19T16:49:52.686Z,29
2022-08-19T16:52:38.515Z,34
2022-08-19T16:55:43.862Z,32
2022-08-19T16:58:49.103Z,31
2022-08-19T17:02:31.565Z,32
2022-08-19T17:05:28.621Z,31
2022-08-19T17:08:33.964Z,32
2022-08-19T17:11:39.259Z,36
2022-08-19T17:14:45.662Z,35
2022-08-19T17:17:49.861Z,37
2022-08-19T17:21:32.234Z,32
2022-08-19T17:24:37.557Z,33
2022-08-19T17:27:42.853Z,34
2022-08-19T17:30:48.206Z,34
2022-08-19T17:33:55.071Z,34
2022-08-19T17:37:35.849Z,30
2022-08-19T17:40:41.171Z,34
2022-08-19T17:43:46.506Z,32
2022-08-19T17:46:51.838Z,31
2022-08-19T17:50:34.171Z,31
2022-08-19T17:53:39.478Z,34
2022-08-19T17:56:44.780Z,30
2022-08-19T17:59:50.108Z,32
2022-08-19T18:03:32.465Z,30
2022-08-19T18:06:29.622Z,32
2022-08-19T18:09:40.407Z,32
2022-08-19T18:12:40.198Z,32
2022-08-19T18:15:45.526Z,34
2022-08-19T18:18:50.824Z,34
2022-08-19T18:22:33.190Z,32
2022-08-19T18:25:41.978Z,34
2022-08-19T18:28:49.530Z,36
2022-08-19T18:31:49.119Z,34
2022-08-19T18:35:31.523Z,36
2022-08-19T18:38:36.814Z,37
2022-08-19T18:41:42.164Z,38
2022-08-19T18:44:47.436Z,35
2022-08-19T18:47:52.789Z,34
2022-08-19T18:51:35.139Z,36
2022-08-19T18:54:40.407Z,35
2022-08-19T18:57:45.776Z,36
2022-08-19T19:00:51.074Z,34
2022-08-19T19:04:33.440Z,37
2022-08-19T19:07:30.525Z,38
2022-08-19T19:10:35.884Z,39
2022-08-19T19:13:41.155Z,34
2022-08-19T19:16:46.480Z,38
2022-08-19T19:19:51.825Z,32
2022-08-19T19:23:34.154Z,36
2022-08-19T19:26:39.476Z,33
2022-08-19T19:29:47.417Z,36
2022-08-19T19:32:50.110Z,33
2022-08-19T19:36:32.472Z,35
2022-08-19T19:39:46.200Z,31
2022-08-19T19:42:43.093Z,30
2022-08-19T19:45:48.411Z,27
2022-08-19T19:48:56.098Z,31
2022-08-19T19:52:36.110Z,27
2022-08-19T19:55:41.405Z,28
2022-08-19T19:58:46.705Z,28
2022-08-19T20:01:52.551Z,27
2022-08-19T20:04:57.347Z,26
2022-08-19T20:08:31.502Z,26
2022-08-19T20:11:36.803Z,26
2022-08-19T20:14:42.198Z,25
2022-08-19T20:17:47.449Z,20
2022-08-19T20:20:52.800Z,28
2022-08-19T20:24:35.099Z,22
2022-08-19T20:27:40.415Z,24
2022-08-19T20:30:46.366Z,24
2022-08-19T20:33:51.057Z,21
2022-08-19T20:37:33.405Z,21
2022-08-19T20:40:38.727Z,23
2022-08-19T20:43:44.030Z,19
2022-08-19T20:46:54.196Z,20
2022-08-19T20:50:31.762Z,21
2022-08-19T20:53:37.066Z,19
2022-08-19T20:56:42.335Z,18
2022-08-19T20:59:47.661Z,17
2022-08-19T21:02:52.967Z,18
2022-08-19T21:06:27.154Z,16
2022-08-19T21:09:32.446Z,16
2022-08-19T21:12:37.762Z,14
2022-08-19T21:15:43.103Z,14
2022-08-19T21:18:48.398Z,14
2022-08-19T21:21:53.686Z,13
2022-08-19T21:28:41.400Z,13
2022-08-19T21:31:46.721Z,12
2022-08-19T21:34:51.996Z,13
2022-08-19T21:38:34.386Z,12
2022-08-19T21:41:43.445Z,12
2022-08-19T21:45:49.633Z,12
2022-08-19T21:47:50.334Z,12
2022-08-19T21:51:32.688Z,13
2022-08-19T21:54:38.381Z,13
2022-08-19T21:57:43.299Z,11
2022-08-19T22:00:48.632Z,12
2022-08-19T22:04:30.971Z,9
2022-08-19T22:07:28.101Z,10
2022-08-19T22:10:33.402Z,12
2022-08-19T22:13:39.879Z,12
2022-08-19T22:16:44.049Z,9
2022-08-19T22:19:49.387Z,10
2022-08-19T22:23:31.719Z,10
2022-08-19T22:26:37.008Z,10
2022-08-19T22:29:42.375Z,9
2022-08-19T22:32:47.647Z,10
2022-08-19T22:35:52.930Z,9
2022-08-19T22:39:35.376Z,8
2022-08-19T22:42:40.647Z,11
2022-08-19T22:46:18.436Z,9
2022-08-19T22:48:56.036Z,9
2022-08-19T22:52:33.625Z,9
2022-08-19T22:55:38.965Z,7
2022-08-19T22:58:44.297Z,7
2022-08-19T23:01:49.543Z,6
2022-08-19T23:05:31.905Z,6
2022-08-19T23:08:29.076Z,7
2022-08-19T23:11:34.365Z,6
2022-08-19T23:14:39.701Z,6
2022-08-19T23:17:44.971Z,10
2022-08-19T23:20:50.305Z,7
2022-08-19T23:24:32.675Z,9
2022-08-19T23:27:37.978Z,13
2022-08-19T23:30:43.303Z,10
2022-08-19T23:33:51.234Z,8
2022-08-19T23:36:53.893Z,9
2022-08-19T23:40:36.290Z,8
2022-08-19T23:43:41.595Z,11
2022-08-19T23:46:54.866Z,11
2022-08-19T23:49:52.220Z,12
2022-08-19T23:53:34.580Z,10
2022-08-19T23:56:39.896Z,10
2022-08-19T23:59:45.642Z,11
